createdAt,value
2016-06-03T00:00:16.201Z,0
2016-06-03T00:00:56.874Z,0
2016-06-03T00:02:28.331Z,0
2016-06-03T00:02:58.630Z,0
2016-06-03T00:05:12.338Z,0
2016-06-03T00:06:12.403Z,0
2016-06-03T00:07:25.125Z,0
2016-06-03T00:08:25.159Z,0
2016-06-03T00:09:12.411Z,0
2016-06-03T00:11:25.260Z,0
2016-06-03T00:12:22.201Z,0
2016-06-03T00:13:22.203Z,0
2016-06-03T00:14:41.472Z,0
2016-06-03T00:15:22.319Z,0
2016-06-03T00:16:53.558Z,0
2016-06-03T00:17:37.496Z,0
2016-06-03T00:18:37.530Z,0
2016-06-03T00:19:37.564Z,0
2016-06-03T00:20:40.614Z,0
2016-06-03T00:21:37.599Z,0
2016-06-03T00:22:37.635Z,0
2016-06-03T00:23:50.436Z,0
2016-06-03T00:24:37.655Z,0
2016-06-03T00:25:56.895Z,0
2016-06-03T00:26:39.160Z,0
2016-06-03T00:28:03.228Z,0
2016-06-03T00:28:47.154Z,0
2016-06-03T00:30:06.390Z,0
2016-06-03T00:31:00.329Z,0
2016-06-03T00:32:18.537Z,0
2016-06-03T00:32:56.835Z,0
2016-06-03T00:34:22.588Z,0
2016-06-03T00:35:06.528Z,0
2016-06-03T00:36:32.218Z,0
2016-06-03T00:37:19.300Z,0
2016-06-03T00:38:39.302Z,0
2016-06-03T00:39:32.289Z,0
2016-06-03T00:40:07.292Z,0
2016-06-03T00:41:06.654Z,0
2016-06-03T00:42:25.892Z,0
2016-06-03T00:43:16.112Z,0
2016-06-03T00:44:29.130Z,0
2016-06-03T00:45:09.930Z,0
2016-06-03T00:46:29.152Z,0
2016-06-03T00:47:13.107Z,0
2016-06-03T00:48:32.314Z,0
2016-06-03T00:49:13.128Z,0
2016-06-03T00:51:16.383Z,0
2016-06-03T00:51:29.055Z,0
2016-06-03T00:52:48.499Z,0
2016-06-03T00:53:36.764Z,0
2016-06-03T00:54:29.079Z,0
2016-06-03T00:55:29.191Z,0
2016-06-03T00:56:29.132Z,0
2016-06-03T00:57:29.260Z,0
2016-06-03T00:58:29.185Z,0
2016-06-03T00:59:41.780Z,0
2016-06-03T01:00:29.236Z,0
2016-06-03T01:01:48.523Z,0
2016-06-03T01:02:30.695Z,0
2016-06-03T01:03:55.075Z,0
2016-06-03T01:04:29.325Z,0
2016-06-03T01:05:29.312Z,0
2016-06-03T01:06:42.112Z,0
2016-06-03T01:07:29.396Z,0
2016-06-03T01:08:48.682Z,0
2016-06-03T01:09:43.011Z,0
2016-06-03T01:10:55.594Z,0
2016-06-03T01:12:00.769Z,0
2016-06-03T01:13:00.771Z,0
2016-06-03T01:14:29.555Z,0
2016-06-03T01:15:29.542Z,0
2016-06-03T01:16:29.576Z,0
2016-06-03T01:17:29.453Z,0
2016-06-03T01:18:42.347Z,0
2016-06-03T01:19:32.663Z,0
2016-06-03T01:20:48.886Z,0
2016-06-03T01:21:29.683Z,0
2016-06-03T01:22:55.408Z,0
2016-06-03T01:23:29.627Z,0
2016-06-03T01:25:30.116Z,0
2016-06-03T01:26:29.822Z,0
2016-06-03T01:27:42.559Z,0
2016-06-03T01:28:29.843Z,0
2016-06-03T01:29:29.720Z,0
2016-06-03T01:30:29.879Z,0
2016-06-03T01:31:42.648Z,0
2016-06-03T01:32:30.041Z,0
2016-06-03T01:33:31.371Z,0
2016-06-03T01:34:31.374Z,0
2016-06-03T01:35:42.706Z,0
2016-06-03T01:36:30.020Z,0
2016-06-03T01:37:30.039Z,0
2016-06-03T01:38:42.823Z,0
2016-06-03T01:39:31.481Z,0
2016-06-03T01:40:42.954Z,0
2016-06-03T01:41:33.143Z,0
2016-06-03T01:42:30.161Z,0
2016-06-03T01:43:30.164Z,0
2016-06-03T01:45:45.451Z,0
2016-06-03T01:46:45.656Z,0
2016-06-03T01:47:45.472Z,0
2016-06-03T01:48:58.227Z,0
2016-06-03T01:49:45.508Z,0
2016-06-03T01:50:58.295Z,0
2016-06-03T01:51:45.545Z,0
2016-06-03T01:53:16.880Z,0
2016-06-03T01:53:45.598Z,0
2016-06-03T01:54:46.946Z,0
2016-06-03T01:55:45.930Z,0
2016-06-03T01:56:45.683Z,0
2016-06-03T01:57:45.686Z,0
2016-06-03T01:58:45.720Z,0
2016-06-03T01:59:45.863Z,0
2016-06-03T02:00:45.741Z,0
2016-06-03T02:01:45.776Z,0
2016-06-03T02:02:58.547Z,0
2016-06-03T02:03:58.565Z,0
2016-06-03T02:04:45.846Z,0
2016-06-03T02:05:45.832Z,0
2016-06-03T02:06:58.635Z,0
2016-06-03T02:07:45.917Z,0
2016-06-03T02:08:48.891Z,0
2016-06-03T02:09:46.844Z,0
2016-06-03T02:10:45.909Z,0
2016-06-03T02:12:05.195Z,4
2016-06-03T02:12:46.039Z,4
2016-06-03T02:13:46.026Z,4
2016-06-03T02:14:58.814Z,0
2016-06-03T02:15:58.831Z,0
2016-06-03T02:17:05.365Z,4
2016-06-03T02:17:45.959Z,4
2016-06-03T02:19:13.230Z,4
2016-06-03T02:19:46.167Z,4
2016-06-03T02:20:46.186Z,4
2016-06-03T02:22:17.503Z,4
2016-06-03T02:23:27.131Z,8
2016-06-03T02:24:01.446Z,4
2016-06-03T02:25:02.105Z,8
2016-06-03T02:26:14.093Z,8
2016-06-03T02:27:04.595Z,8
2016-06-03T02:28:01.410Z,8
2016-06-03T02:29:01.585Z,8
2016-06-03T02:30:14.479Z,12
2016-06-03T02:31:01.638Z,16
2016-06-03T02:32:01.640Z,12
2016-06-03T02:33:01.674Z,16
2016-06-03T02:34:01.724Z,20
2016-06-03T02:35:01.696Z,24
2016-06-03T02:36:04.760Z,24
2016-06-03T02:37:01.748Z,28
2016-06-03T02:38:01.781Z,28
2016-06-03T02:39:01.815Z,32
2016-06-03T02:40:14.412Z,40
2016-06-03T02:41:14.586Z,44
2016-06-03T02:42:27.542Z,48
2016-06-03T02:43:21.123Z,52
2016-06-03T02:44:33.203Z,60
2016-06-03T02:45:04.987Z,64
2016-06-03T02:46:01.959Z,68
2016-06-03T02:47:02.025Z,76
2016-06-03T02:48:05.042Z,84
2016-06-03T02:49:14.732Z,92
2016-06-03T02:50:02.032Z,96
2016-06-03T02:51:02.050Z,108
2016-06-03T02:52:14.803Z,116
2016-06-03T02:53:05.133Z,128
2016-06-03T02:54:01.964Z,136
2016-06-03T02:55:08.983Z,144
2016-06-03T02:56:02.892Z,156
2016-06-03T02:57:02.176Z,168
2016-06-03T02:58:02.257Z,180
2016-06-03T02:59:14.963Z,196
2016-06-03T03:00:02.247Z,208
2016-06-03T03:01:27.921Z,228
2016-06-03T03:02:02.268Z,240
2016-06-03T03:03:33.598Z,264
2016-06-03T03:04:02.335Z,276
2016-06-03T03:05:02.401Z,292
2016-06-03T03:06:21.746Z,320
2016-06-03T03:07:05.704Z,336
2016-06-03T03:08:31.393Z,368
2016-06-03T03:09:18.458Z,392
2016-06-03T03:12:05.967Z,468
2016-06-03T03:13:15.579Z,504
2016-06-03T03:13:28.235Z,508
2016-06-03T03:14:28.268Z,540
2016-06-03T03:15:41.021Z,584
2016-06-03T03:16:41.023Z,616
2016-06-03T03:17:54.014Z,664
2016-06-03T03:20:33.956Z,776
2016-06-03T03:21:15.536Z,808
2016-06-03T03:22:02.665Z,844
2016-06-03T03:23:02.840Z,888
2016-06-03T03:24:02.874Z,932
2016-06-03T03:26:12.739Z,1040
2016-06-03T03:27:12.772Z,1092
2016-06-03T03:28:12.774Z,1148
2016-06-03T03:29:12.887Z,1208
2016-06-03T03:30:12.827Z,1272
2016-06-03T03:31:12.923Z,1344
2016-06-03T03:32:12.864Z,1424
2016-06-03T03:33:25.616Z,1520
2016-06-03T03:34:25.635Z,1612
2016-06-03T03:35:38.606Z,1732
2016-06-03T03:36:38.516Z,1828
2016-06-03T03:38:47.442Z,2016
2016-06-03T03:41:03.107Z,2216
2016-06-03T03:42:03.297Z,2296
2016-06-03T03:43:03.128Z,2356
2016-06-03T03:44:06.161Z,2460
2016-06-03T03:45:15.727Z,2628
2016-06-03T03:46:09.495Z,2764
2016-06-03T03:47:03.201Z,2848
2016-06-03T03:49:00.191Z,2968
2016-06-03T03:50:35.319Z,2964
2016-06-03T03:51:35.243Z,3032
2016-06-03T03:52:54.389Z,3216
2016-06-03T03:55:51.038Z,3508
2016-06-03T03:57:03.962Z,3620
2016-06-03T03:59:54.252Z,3856
2016-06-03T04:00:54.255Z,3952
2016-06-03T04:02:56.869Z,4172
2016-06-03T04:03:28.729Z,4188
2016-06-03T04:04:28.746Z,4340
2016-06-03T04:06:31.330Z,4480
2016-06-03T04:06:43.987Z,4508
2016-06-03T04:07:44.020Z,4572
2016-06-03T04:08:44.039Z,4648
2016-06-03T04:09:44.088Z,4700
2016-06-03T04:10:45.497Z,4712
2016-06-03T04:11:56.940Z,4800
2016-06-03T04:12:56.881Z,4948
2016-06-03T04:13:44.193Z,5048
2016-06-03T04:16:00.059Z,5396
2016-06-03T04:17:00.172Z,5592
2016-06-03T04:18:00.097Z,5768
2016-06-03T04:19:12.897Z,5912
2016-06-03T04:20:09.400Z,5984
2016-06-03T04:21:25.839Z,6048
2016-06-03T04:22:00.170Z,6068
2016-06-03T04:23:25.845Z,6136
2016-06-03T04:24:00.207Z,6188
2016-06-03T04:26:02.806Z,6508
2016-06-03T04:26:41.103Z,6608
2016-06-03T04:27:15.511Z,6700
2016-06-03T04:29:18.064Z,6888
2016-06-03T04:29:56.505Z,6920
2016-06-03T04:30:30.739Z,6916
2016-06-03T04:32:33.369Z,6928
2016-06-03T04:33:11.825Z,6916
2016-06-03T04:33:46.185Z,6928
2016-06-03T04:35:48.799Z,6952
2016-06-03T04:36:01.474Z,6968
2016-06-03T04:37:01.491Z,6984
2016-06-03T04:38:09.198Z,7116
2016-06-03T04:39:01.621Z,7192
2016-06-03T04:40:21.500Z,7324
2016-06-03T04:41:20.784Z,7404
2016-06-03T04:42:32.740Z,7512
2016-06-03T04:43:27.382Z,7688
2016-06-03T04:45:33.607Z,8128
2016-06-03T04:46:03.219Z,8220
2016-06-03T04:47:46.691Z,8284
2016-06-03T04:48:03.162Z,8300
2016-06-03T04:49:01.727Z,8632
2016-06-03T04:50:01.792Z,9012
2016-06-03T04:51:01.795Z,9240
2016-06-03T04:52:01.923Z,11376
2016-06-03T04:53:21.066Z,15200
2016-06-03T04:54:11.272Z,16192
2016-06-03T04:55:30.775Z,16736
2016-06-03T04:56:05.434Z,16320
2016-06-03T04:58:02.189Z,15808
2016-06-03T04:58:14.673Z,15936
2016-06-03T05:00:11.835Z,15616
2016-06-03T05:00:24.491Z,15584
2016-06-03T05:01:24.602Z,15200
2016-06-03T05:02:27.559Z,15072
2016-06-03T05:03:43.765Z,14880
2016-06-03T05:04:30.861Z,14784
2016-06-03T05:06:27.194Z,14912
2016-06-03T05:07:05.494Z,14976
2016-06-03T05:07:39.869Z,14944
2016-06-03T05:09:39.890Z,14848
2016-06-03T05:09:53.424Z,14944
2016-06-03T05:11:18.412Z,15072
2016-06-03T05:12:08.649Z,14912
2016-06-03T05:13:28.698Z,14976
2016-06-03T05:14:02.420Z,14912
2016-06-03T05:15:02.469Z,15136
2016-06-03T05:16:02.550Z,15360
2016-06-03T05:17:02.473Z,15488
2016-06-03T05:18:02.523Z,15904
2016-06-03T05:19:21.729Z,16256
2016-06-03T05:20:02.592Z,16192
2016-06-03T05:21:29.703Z,16832
2016-06-03T05:22:02.612Z,16800
2016-06-03T05:24:05.884Z,17344
2016-06-03T05:24:18.540Z,17376
2016-06-03T05:25:19.230Z,17600
2016-06-03T05:26:18.592Z,17568
2016-06-03T05:27:18.642Z,17600
2016-06-03T05:28:18.676Z,17888
2016-06-03T05:29:18.678Z,17632
2016-06-03T05:30:18.713Z,17600
2016-06-03T05:31:18.747Z,17952
2016-06-03T05:32:18.906Z,18208
2016-06-03T05:33:18.829Z,18432
2016-06-03T05:34:18.848Z,18560
2016-06-03T05:35:18.710Z,18144
2016-06-03T05:36:18.900Z,18784
2016-06-03T05:37:18.981Z,18944
2016-06-03T05:38:18.984Z,18912
2016-06-03T05:39:20.440Z,18976
2016-06-03T05:40:18.958Z,17888
2016-06-03T05:41:19.148Z,19264
2016-06-03T05:42:19.120Z,19424
2016-06-03T05:43:19.185Z,19904
2016-06-03T05:44:19.204Z,19808
2016-06-03T05:45:19.206Z,20480
2016-06-03T05:46:19.256Z,20672
2016-06-03T05:47:19.352Z,21024
2016-06-03T05:48:19.355Z,20672
2016-06-03T05:49:19.357Z,20864
2016-06-03T05:50:19.376Z,20544
2016-06-03T05:51:19.441Z,21024
2016-06-03T05:52:25.568Z,21376
2016-06-03T05:53:19.508Z,21472
2016-06-03T05:54:32.261Z,20768
2016-06-03T05:55:25.701Z,22336
2016-06-03T05:57:16.566Z,22720
2016-06-03T05:57:29.253Z,22624
2016-06-03T05:58:29.272Z,23168
2016-06-03T05:59:29.291Z,23744
2016-06-03T06:00:29.308Z,23616
2016-06-03T06:01:29.389Z,23040
2016-06-03T06:02:29.424Z,23936
2016-06-03T06:03:42.161Z,23552
2016-06-03T06:04:42.194Z,25184
2016-06-03T06:06:51.841Z,27744
2016-06-03T06:07:58.143Z,14736
2016-06-03T06:09:04.646Z,11576
2016-06-03T06:10:05.101Z,11164
2016-06-03T06:11:18.136Z,23808
2016-06-03T06:13:23.312Z,23904
2016-06-03T06:14:14.362Z,22560
2016-06-03T06:14:35.940Z,23264
2016-06-03T06:16:38.648Z,25472
2016-06-03T06:17:10.510Z,21152
2016-06-03T06:17:51.370Z,28032
2016-06-03T06:19:55.391Z,26944
2016-06-03T06:20:27.300Z,27296
2016-06-03T06:21:08.068Z,27904
2016-06-03T06:23:13.606Z,28960
2016-06-03T06:23:51.934Z,27584
2016-06-03T06:24:26.264Z,28064
2016-06-03T06:25:57.957Z,25440
2016-06-03T06:26:29.645Z,26976
2016-06-03T06:28:26.805Z,27264
2016-06-03T06:28:45.743Z,27904
2016-06-03T06:30:10.858Z,27168
2016-06-03T06:30:52.280Z,21184
2016-06-03T06:31:39.611Z,25120
2016-06-03T06:32:39.582Z,23936
2016-06-03T06:33:39.647Z,23296
2016-06-03T06:34:39.650Z,19168
2016-06-03T06:35:58.968Z,15896
2016-06-03T06:36:39.796Z,19072
2016-06-03T06:37:39.783Z,17920
2016-06-03T06:38:39.911Z,18944
2016-06-03T06:39:40.319Z,26304
2016-06-03T06:40:40.511Z,15204
2016-06-03T06:41:41.357Z,27584
2016-06-03T06:42:40.046Z,15416
2016-06-03T06:43:59.208Z,25920
2016-06-03T06:44:41.443Z,27040
2016-06-03T06:46:37.057Z,25152
2016-06-03T06:47:15.459Z,24768
2016-06-03T06:47:49.803Z,24352
2016-06-03T06:49:52.457Z,22112
2016-06-03T06:50:24.362Z,22080
2016-06-03T06:51:05.282Z,22272
2016-06-03T06:52:05.266Z,22080
2016-06-03T06:53:05.325Z,22432
2016-06-03T06:54:05.353Z,22816
2016-06-03T06:55:12.835Z,22496
2016-06-03T06:56:24.630Z,23008
2016-06-03T06:59:05.616Z,22144
2016-06-03T06:59:18.257Z,22240
2016-06-03T07:01:08.817Z,22464
2016-06-03T07:03:53.434Z,22208
2016-06-03T07:05:56.926Z,23392
2016-06-03T07:07:12.167Z,23712
2016-06-03T07:07:56.120Z,24160
2016-06-03T07:09:56.144Z,24192
2016-06-03T07:11:38.354Z,24160
2016-06-03T07:12:47.965Z,22912
2016-06-03T07:15:03.239Z,17600
2016-06-03T07:15:32.317Z,18720
2016-06-03T07:17:41.853Z,15688
2016-06-03T07:19:38.765Z,15656
2016-06-03T07:19:54.515Z,16160
2016-06-03T07:21:54.583Z,17376
2016-06-03T07:22:54.555Z,18560
2016-06-03T07:24:13.810Z,18752
2016-06-03T07:24:54.903Z,19360
2016-06-03T07:26:20.956Z,21600
2016-06-03T07:26:54.800Z,27200
2016-06-03T07:28:26.039Z,33536
2016-06-03T07:29:07.542Z,38752
2016-06-03T07:29:54.824Z,39968
2016-06-03T07:34:39.759Z,36640
2016-06-03T07:35:33.340Z,37024
2016-06-03T07:37:32.518Z,39200
2016-06-03T07:40:01.401Z,40480
2016-06-03T07:41:11.872Z,33184
2016-06-03T07:43:13.611Z,48032
2016-06-03T07:44:23.067Z,46656
2016-06-03T07:44:57.598Z,43552
2016-06-03T07:47:00.200Z,53216
2016-06-03T07:47:38.528Z,52032
2016-06-03T07:48:12.734Z,50496
2016-06-03T07:50:15.567Z,46752
2016-06-03T07:50:54.020Z,47488
2016-06-03T07:51:28.258Z,48480
2016-06-03T07:53:30.903Z,45184
2016-06-03T07:54:09.250Z,45408
2016-06-03T07:54:44.734Z,45568
2016-06-03T07:56:46.209Z,34016
2016-06-03T07:57:24.602Z,41152
2016-06-03T07:57:58.930Z,47232
2016-06-03T08:00:01.547Z,48320
2016-06-03T08:00:39.907Z,46528
2016-06-03T08:01:14.269Z,35552
2016-06-03T08:03:16.884Z,51936
2016-06-03T08:03:55.228Z,51456
2016-06-03T08:04:29.590Z,52640
2016-06-03T08:05:29.608Z,55008
2016-06-03T08:06:29.673Z,56864
2016-06-03T08:07:29.691Z,56448
2016-06-03T08:08:48.929Z,54592
2016-06-03T08:09:29.774Z,53600
2016-06-03T08:11:01.015Z,54336
2016-06-03T08:11:29.843Z,54048
2016-06-03T08:12:29.908Z,53152
2016-06-03T08:13:30.114Z,44064
2016-06-03T08:14:42.679Z,25568
2016-06-03T08:15:49.213Z,19904
2016-06-03T08:17:27.031Z,19264
2016-06-03T08:20:07.976Z,19392
2016-06-03T08:20:20.773Z,19488
2016-06-03T08:21:20.511Z,18656
2016-06-03T08:22:22.169Z,19200
2016-06-03T08:23:20.734Z,19392
2016-06-03T08:24:20.769Z,19584
2016-06-03T08:25:22.537Z,19968
2016-06-03T08:26:33.602Z,20000
2016-06-03T08:27:20.886Z,19872
2016-06-03T08:28:33.514Z,19488
2016-06-03T08:29:33.828Z,19168
2016-06-03T08:30:46.660Z,19104
2016-06-03T08:31:46.538Z,19168
2016-06-03T08:32:49.696Z,19168
2016-06-03T08:33:49.574Z,19040
2016-06-03T08:34:31.998Z,18688
2016-06-03T08:36:33.191Z,18400
2016-06-03T08:36:45.691Z,18400
2016-06-03T08:37:45.710Z,18240
2016-06-03T08:38:58.463Z,17984
2016-06-03T08:39:58.918Z,18016
2016-06-03T08:40:45.983Z,17920
2016-06-03T08:42:06.551Z,17760
2016-06-03T08:42:58.613Z,17468
2016-06-03T08:44:48.493Z,17440
2016-06-03T08:45:13.935Z,17440
2016-06-03T08:46:13.890Z,17416
2016-06-03T08:47:26.705Z,17120
2016-06-03T08:48:17.162Z,16876
2016-06-03T08:49:39.789Z,16584
2016-06-03T08:50:14.042Z,16556
2016-06-03T08:51:45.357Z,16488
2016-06-03T08:52:29.312Z,16476
2016-06-03T08:53:29.455Z,16168
2016-06-03T08:54:41.959Z,15664
2016-06-03T08:55:30.430Z,15448
2016-06-03T08:56:55.105Z,14996
2016-06-03T08:57:32.498Z,14680
2016-06-03T08:59:32.097Z,13584
2016-06-03T08:59:44.847Z,13616
2016-06-03T09:01:04.008Z,14444
2016-06-03T09:01:46.243Z,14568
2016-06-03T09:03:16.139Z,14368
2016-06-03T09:03:57.639Z,14304
2016-06-03T09:04:46.330Z,14384
2016-06-03T09:06:41.897Z,14444
2016-06-03T09:06:54.538Z,14432
2016-06-03T09:07:54.587Z,14212
2016-06-03T09:09:02.355Z,13940
2016-06-03T09:10:07.971Z,13776
2016-06-03T09:11:20.332Z,13624
2016-06-03T09:12:10.476Z,13620
2016-06-03T09:13:57.338Z,13552
2016-06-03T09:14:10.013Z,13564
2016-06-03T09:15:10.046Z,13484
2016-06-03T09:16:22.893Z,13256
2016-06-03T09:17:13.130Z,13228
2016-06-03T09:18:22.868Z,12964
2016-06-03T09:19:16.385Z,12612
2016-06-03T09:20:13.232Z,12428
2016-06-03T09:21:23.000Z,12336
2016-06-03T09:22:10.237Z,12320
2016-06-03T09:23:10.271Z,12656
2016-06-03T09:24:10.321Z,12544
2016-06-03T09:25:19.261Z,12532
2016-06-03T09:26:13.435Z,12368
2016-06-03T09:27:36.064Z,12256
2016-06-03T09:28:23.409Z,12292
2016-06-03T09:29:41.739Z,12480
2016-06-03T09:30:36.150Z,12464
2016-06-03T09:33:10.672Z,12836
2016-06-03T09:34:22.739Z,13048
2016-06-03T09:35:48.491Z,13116
2016-06-03T09:36:32.447Z,12760
2016-06-03T09:37:13.933Z,12644
2016-06-03T09:38:01.261Z,12900
2016-06-03T09:39:20.408Z,13076
2016-06-03T09:40:04.346Z,12896
2016-06-03T09:41:27.304Z,12988
2016-06-03T09:42:20.557Z,13260
2016-06-03T09:43:30.028Z,13476
2016-06-03T09:44:04.575Z,13200
2016-06-03T09:45:05.971Z,13112
2016-06-03T09:46:30.239Z,13796
2016-06-03T09:47:23.821Z,14084
2016-06-03T09:48:39.072Z,14628
2016-06-03T09:49:07.779Z,15344
2016-06-03T09:50:07.828Z,16992
2016-06-03T09:51:20.596Z,16292
2016-06-03T09:52:07.912Z,15128
2016-06-03T09:53:27.179Z,12776
2016-06-03T09:54:07.948Z,12864
2016-06-03T09:56:16.859Z,14188
2016-06-03T09:56:42.391Z,14168
2016-06-03T09:57:35.815Z,12136
2016-06-03T09:59:01.505Z,12928
2016-06-03T09:59:31.024Z,13332
2016-06-03T10:00:30.012Z,13912
2016-06-03T10:02:38.548Z,13552
2016-06-03T10:02:51.189Z,12812
2016-06-03T10:04:04.019Z,11768
2016-06-03T10:04:51.256Z,11656
2016-06-03T10:06:10.497Z,11904
2016-06-03T10:07:00.653Z,12136
2016-06-03T10:08:22.657Z,12892
2016-06-03T10:09:04.110Z,14000
2016-06-03T10:09:52.239Z,15564
2016-06-03T10:11:10.494Z,16768
2016-06-03T10:11:54.510Z,16416
2016-06-03T10:13:22.890Z,14968
2016-06-03T10:13:52.952Z,15000
2016-06-03T10:15:54.629Z,18368
2016-06-03T10:16:51.710Z,18688
2016-06-03T10:18:04.401Z,17952
2016-06-03T10:19:04.435Z,17088
2016-06-03T10:20:54.299Z,14824
2016-06-03T10:21:19.693Z,14440
2016-06-03T10:22:19.742Z,14840
2016-06-03T10:23:32.542Z,15356
2016-06-03T10:24:19.794Z,16896
2016-06-03T10:25:45.344Z,16544
2016-06-03T10:26:21.285Z,16256
2016-06-03T10:27:19.881Z,15808
2016-06-03T10:28:19.884Z,14308
2016-06-03T10:29:32.667Z,15384
2016-06-03T10:30:32.701Z,15580
2016-06-03T10:31:45.673Z,14268
2016-06-03T10:32:32.800Z,14124
2016-06-03T10:34:17.024Z,14188
2016-06-03T10:34:29.696Z,13996
2016-06-03T10:36:32.280Z,13212
2016-06-03T10:36:51.061Z,13236
2016-06-03T10:37:44.813Z,12884
2016-06-03T10:38:46.270Z,12880
2016-06-03T10:39:44.960Z,14156
2016-06-03T10:40:44.588Z,14496
2016-06-03T10:41:46.199Z,14520
2016-06-03T10:42:52.640Z,15208
2016-06-03T10:44:04.283Z,17984
2016-06-03T10:44:57.863Z,17728
2016-06-03T10:45:45.069Z,16704
2016-06-03T10:46:45.104Z,14672
2016-06-03T10:48:16.452Z,13456
2016-06-03T10:49:00.515Z,13368
2016-06-03T10:50:00.549Z,14004
2016-06-03T10:51:19.680Z,15228
2016-06-03T10:52:19.713Z,15400
2016-06-03T10:53:31.887Z,15024
2016-06-03T10:54:00.590Z,14876
2016-06-03T10:56:00.753Z,15396
2016-06-03T10:57:00.756Z,16128
2016-06-03T10:58:03.399Z,16288
2016-06-03T10:59:03.745Z,16768
2016-06-03T11:00:07.045Z,16736
2016-06-03T11:01:00.781Z,16832
2016-06-03T11:02:13.678Z,16704
2016-06-03T11:03:02.240Z,16004
2016-06-03T11:04:20.089Z,16832
2016-06-03T11:05:00.902Z,16704
2016-06-03T11:06:02.342Z,16544
2016-06-03T11:07:02.422Z,16384
2016-06-03T11:08:00.988Z,16608
2016-06-03T11:09:01.038Z,16928
2016-06-03T11:10:04.103Z,17088
2016-06-03T11:11:15.202Z,16320
2016-06-03T11:12:07.439Z,15072
2016-06-03T11:13:01.080Z,14816
2016-06-03T11:14:13.944Z,13936
2016-06-03T11:15:14.009Z,13372
2016-06-03T11:16:27.027Z,13224
2016-06-03T11:17:26.968Z,13604
2016-06-03T11:18:32.612Z,13516
2016-06-03T11:19:14.068Z,13296
2016-06-03T11:20:01.396Z,12896
2016-06-03T11:21:58.370Z,12856
2016-06-03T11:22:11.044Z,12896
2016-06-03T11:23:11.078Z,13148
2016-06-03T11:24:23.909Z,13124
2016-06-03T11:25:24.145Z,12864
2016-06-03T11:26:11.352Z,12524
2016-06-03T11:28:46.514Z,11664
2016-06-03T11:29:56.126Z,11708
2016-06-03T11:31:27.475Z,11164
2016-06-03T11:32:42.711Z,11684
2016-06-03T11:33:14.511Z,11924
2016-06-03T11:34:11.498Z,12460
2016-06-03T11:35:17.814Z,12296
2016-06-03T11:36:24.161Z,11928
2016-06-03T11:37:14.616Z,11596
2016-06-03T11:38:37.478Z,11920
2016-06-03T11:39:11.684Z,11844
2016-06-03T11:40:45.374Z,11976
2016-06-03T11:41:20.564Z,11948
2016-06-03T11:43:20.179Z,11984
2016-06-03T11:43:52.069Z,11880
2016-06-03T11:44:32.885Z,11980
2016-06-03T11:46:35.499Z,12280
2016-06-03T11:47:13.830Z,12500
2016-06-03T11:47:48.330Z,12496
2016-06-03T11:49:19.524Z,12404
2016-06-03T11:49:54.539Z,12284
2016-06-03T11:52:07.529Z,11828
2016-06-03T11:53:17.143Z,11668
2016-06-03T11:54:10.708Z,11252
2016-06-03T11:56:22.479Z,10472
2016-06-03T11:57:09.857Z,9960
2016-06-03T11:58:29.251Z,10340
2016-06-03T11:59:11.362Z,10424
2016-06-03T12:00:38.709Z,10604
2016-06-03T12:01:09.837Z,10516
2016-06-03T12:03:12.608Z,10196
2016-06-03T12:03:50.764Z,9836
2016-06-03T12:04:25.281Z,9428
2016-06-03T12:06:27.897Z,8584
2016-06-03T12:07:06.366Z,8408
2016-06-03T12:07:40.711Z,8344
2016-06-03T12:09:43.327Z,8444
2016-06-03T12:10:21.688Z,8384
2016-06-03T12:10:56.344Z,8396
2016-06-03T12:12:21.741Z,8292
2016-06-03T12:13:08.835Z,8156
2016-06-03T12:14:29.559Z,8148
2016-06-03T12:18:18.320Z,8516
2016-06-03T12:20:16.716Z,8876
2016-06-03T12:21:19.890Z,9292
2016-06-03T12:22:35.784Z,9812
2016-06-03T12:24:35.790Z,9024
2016-06-03T12:24:48.430Z,8916
2016-06-03T12:26:01.307Z,8720
2016-06-03T12:27:07.701Z,8732
2016-06-03T12:30:00.787Z,9608
2016-06-03T12:30:35.806Z,9048
2016-06-03T12:32:44.826Z,8488
2016-06-03T12:33:44.860Z,8496
2016-06-03T12:35:47.475Z,8596
2016-06-03T12:36:19.478Z,8636
2016-06-03T12:37:00.165Z,8668
2016-06-03T12:39:03.452Z,7140
2016-06-03T12:39:35.376Z,7228
2016-06-03T12:40:45.613Z,7680
2016-06-03T12:41:19.350Z,8132
2016-06-03T12:44:00.309Z,8544
2016-06-03T12:44:34.655Z,8412
2016-06-03T12:46:47.474Z,9356
2016-06-03T12:47:37.757Z,9760
2016-06-03T12:48:54.588Z,9800
2016-06-03T12:49:34.857Z,9628
2016-06-03T12:51:31.830Z,9460
2016-06-03T12:51:44.424Z,9724
2016-06-03T12:53:41.538Z,10268
2016-06-03T12:54:13.354Z,10536
2016-06-03T12:55:23.559Z,11772
2016-06-03T12:56:16.531Z,13100
2016-06-03T12:58:00.362Z,13084
2016-06-03T12:58:19.318Z,13236
2016-06-03T12:59:13.071Z,12872
2016-06-03T13:00:13.058Z,12520
2016-06-03T13:01:25.873Z,11628
2016-06-03T13:02:20.828Z,10732
2016-06-03T13:03:44.472Z,10696
2016-06-03T13:04:28.443Z,10952
2016-06-03T13:05:54.118Z,10720
2016-06-03T13:06:38.074Z,10668
2016-06-03T13:08:03.859Z,10592
2016-06-03T13:08:50.876Z,10304
2016-06-03T13:11:00.476Z,9512
2016-06-03T13:11:53.837Z,9204
2016-06-03T13:13:57.905Z,8888
2016-06-03T13:14:36.236Z,8960
2016-06-03T13:15:10.611Z,9100
2016-06-03T13:17:13.197Z,9856
2016-06-03T13:17:51.713Z,10420
2016-06-03T13:18:25.888Z,10804
2016-06-03T13:20:28.799Z,10104
2016-06-03T13:20:41.565Z,10056
2016-06-03T13:21:41.505Z,9680
2016-06-03T13:23:00.680Z,9196
2016-06-03T13:23:42.838Z,9960
2016-06-03T13:25:13.406Z,9752
2016-06-03T13:25:44.921Z,9740
2016-06-03T13:27:50.521Z,10440
2016-06-03T13:28:22.524Z,10772
2016-06-03T13:30:25.107Z,11708
2016-06-03T13:30:37.779Z,11696
2016-06-03T13:31:37.860Z,11892
2016-06-03T13:32:50.565Z,12732
2016-06-03T13:33:50.553Z,14324
2016-06-03T13:34:57.071Z,15808
2016-06-03T13:35:41.058Z,17408
2016-06-03T13:36:41.140Z,18304
2016-06-03T13:37:41.111Z,18880
2016-06-03T13:38:54.098Z,18176
2016-06-03T13:39:45.537Z,17408
2016-06-03T13:41:00.587Z,15968
2016-06-03T13:41:54.011Z,16128
2016-06-03T13:43:12.530Z,17056
2016-06-03T13:44:12.564Z,17856
2016-06-03T13:44:44.566Z,17856
2016-06-03T13:46:15.869Z,17056
2016-06-03T13:46:54.181Z,16768
2016-06-03T13:47:54.230Z,16896
2016-06-03T13:48:57.391Z,17280
2016-06-03T13:50:07.752Z,16736
2016-06-03T13:50:55.786Z,16064
2016-06-03T13:52:20.041Z,15936
2016-06-03T13:52:57.432Z,15744
2016-06-03T13:53:56.029Z,14880
2016-06-03T13:54:55.203Z,14680
2016-06-03T13:55:54.659Z,14888
2016-06-03T13:56:54.646Z,15360
2016-06-03T13:58:07.414Z,14456
2016-06-03T13:58:55.901Z,14340
2016-06-03T13:59:57.998Z,14400
2016-06-03T14:01:07.437Z,14540
2016-06-03T14:01:54.613Z,14672
2016-06-03T14:02:54.771Z,14812
2016-06-03T14:04:07.618Z,14984
2016-06-03T14:04:55.714Z,15340
2016-06-03T14:05:54.889Z,16256
2016-06-03T14:06:54.845Z,16800
2016-06-03T14:07:54.879Z,16736
2016-06-03T14:09:07.773Z,15728
2016-06-03T14:10:08.039Z,15172
2016-06-03T14:10:55.012Z,14988
2016-06-03T14:11:55.014Z,14824
2016-06-03T14:12:55.064Z,15544
2016-06-03T14:13:58.082Z,16864
2016-06-03T14:14:55.131Z,17152
2016-06-03T14:15:55.150Z,16960
2016-06-03T14:16:55.372Z,16640
2016-06-03T14:17:55.389Z,16864
2016-06-03T14:18:55.252Z,18336
2016-06-03T14:19:55.394Z,19616
2016-06-03T14:20:55.273Z,20064
2016-06-03T14:22:09.463Z,19424
2016-06-03T14:22:55.325Z,19040
2016-06-03T14:24:14.703Z,18784
2016-06-03T14:24:57.268Z,18656
2016-06-03T14:26:20.993Z,18048
2016-06-03T14:26:55.477Z,17216
2016-06-03T14:27:55.526Z,15964
2016-06-03T14:28:55.654Z,15052
2016-06-03T14:29:55.562Z,13896
2016-06-03T14:30:55.644Z,12860
2016-06-03T14:31:55.662Z,12008
2016-06-03T14:32:55.664Z,11268
2016-06-03T14:33:55.729Z,10616
2016-06-03T14:34:58.451Z,9984
2016-06-03T14:35:55.907Z,9348
2016-06-03T14:36:55.785Z,9044